createdAt,value
2018-11-07T00:02:16.571Z,12.78
2018-11-07T00:04:50.278Z,13.95
2018-11-07T00:07:23.729Z,13.78
2018-11-07T00:09:57.309Z,14.35
2018-11-07T00:12:30.766Z,14.20
2018-11-07T00:15:04.460Z,13.62
2018-11-07T00:17:38.277Z,13.50
2018-11-07T00:20:13.636Z,14.13
2018-11-07T00:22:47.054Z,14.30
2018-11-07T00:25:20.572Z,14.05
2018-11-07T00:27:54.273Z,14.47
2018-11-07T00:30:27.774Z,13.75
2018-11-07T00:33:01.582Z,13.95
2018-11-07T00:35:35.311Z,19.10
2018-11-07T00:38:09.364Z,14.13
2018-11-07T00:40:42.783Z,14.25
2018-11-07T00:43:15.507Z,14.47
2018-11-07T00:45:48.340Z,15.05
2018-11-07T00:48:22.051Z,14.37
2018-11-07T00:50:55.596Z,13.90
2018-11-07T00:53:29.284Z,14.15
2018-11-07T00:56:02.805Z,14.58
2018-11-07T00:58:36.515Z,15.30
2018-11-07T01:01:10.331Z,13.62
2018-11-07T01:03:44.395Z,15.90
2018-11-07T01:06:18.052Z,14.93
2018-11-07T01:08:51.526Z,14.85
2018-11-07T01:11:25.280Z,14.93
2018-11-07T01:13:59.312Z,13.40
2018-11-07T01:16:32.858Z,14.98
2018-11-07T01:19:06.480Z,14.58
2018-11-07T01:21:40.272Z,15.32
2018-11-07T01:24:13.708Z,15.53
2018-11-07T01:26:47.898Z,14.95
2018-11-07T01:31:54.570Z,14.93
2018-11-07T01:34:28.055Z,14.33
2018-11-07T01:37:01.759Z,14.38
2018-11-07T01:39:35.346Z,14.20
2018-11-07T01:42:09.421Z,14.40
2018-11-07T01:44:42.780Z,14.20
2018-11-07T01:47:16.370Z,15.80
2018-11-07T01:49:49.797Z,14.58
2018-11-07T01:52:23.505Z,13.43
2018-11-07T01:54:57.048Z,14.78
2018-11-07T01:57:30.587Z,15.05
2018-11-07T02:00:04.279Z,13.50
2018-11-07T02:02:37.730Z,14.95
2018-11-07T02:05:11.581Z,14.98
2018-11-07T02:07:45.511Z,13.98
2018-11-07T02:10:19.331Z,13.88
2018-11-07T02:12:52.775Z,13.43
2018-11-07T02:15:26.465Z,13.45
2018-11-07T02:17:59.770Z,14.10
2018-11-07T02:20:33.501Z,13.60
2018-11-07T02:23:07.506Z,13.30
2018-11-07T02:25:41.043Z,13.38
2018-11-07T02:28:15.324Z,13.65
2018-11-07T02:30:48.669Z,13.68
2018-11-07T02:33:21.977Z,13.13
2018-11-07T02:35:55.759Z,13.53
2018-11-07T02:38:28.890Z,13.68
2018-11-07T02:43:34.774Z,13.32
2018-11-07T02:46:09.298Z,13.72
2018-11-07T02:48:42.742Z,13.55
2018-11-07T02:51:16.513Z,12.75
2018-11-07T02:53:49.893Z,13.75
2018-11-07T02:56:23.580Z,13.40
2018-11-07T02:58:57.268Z,13.22
2018-11-07T03:01:31.277Z,12.95
2018-11-07T03:04:04.652Z,13.80
2018-11-07T03:06:38.543Z,12.95
2018-11-07T03:09:13.368Z,13.70
2018-11-07T03:11:46.806Z,12.58
2018-11-07T03:14:20.271Z,12.82
2018-11-07T03:16:53.512Z,13.03
2018-11-07T03:19:26.549Z,13.20
2018-11-07T03:21:59.534Z,12.75
2018-11-07T03:24:32.537Z,13.22
2018-11-07T03:27:06.495Z,13.55
2018-11-07T03:29:39.439Z,14.03
2018-11-07T03:32:12.887Z,13.30
2018-11-07T03:37:18.295Z,13.22
2018-11-07T03:39:51.556Z,13.58
2018-11-07T03:42:24.539Z,12.68
2018-11-07T03:44:57.973Z,13.45
2018-11-07T03:47:31.355Z,13.00
2018-11-07T03:50:05.160Z,13.85
2018-11-07T03:52:38.422Z,13.20
2018-11-07T03:55:11.579Z,13.18
2018-11-07T03:57:44.539Z,13.62
2018-11-07T04:00:17.551Z,13.93
2018-11-07T04:02:50.534Z,13.43
2018-11-07T04:05:23.581Z,13.98
2018-11-07T04:07:57.125Z,13.38
2018-11-07T04:10:30.486Z,13.00
2018-11-07T04:13:03.505Z,14.83
2018-11-07T04:15:36.606Z,12.58
2018-11-07T04:18:10.122Z,13.55
2018-11-07T04:20:43.711Z,13.38
2018-11-07T04:23:16.728Z,14.23
2018-11-07T04:25:49.850Z,13.00
2018-11-07T04:28:23.361Z,12.90
2018-11-07T04:30:56.529Z,13.90
2018-11-07T04:33:29.769Z,12.43
2018-11-07T04:36:03.689Z,12.58
2018-11-07T04:38:37.318Z,12.55
2018-11-07T04:41:11.018Z,13.03
2018-11-07T04:43:45.272Z,13.03
2018-11-07T04:46:19.270Z,13.05
2018-11-07T04:48:52.750Z,13.98
2018-11-07T04:51:26.241Z,12.35
2018-11-07T04:56:32.578Z,14.07
2018-11-07T04:59:06.370Z,14.83
2018-11-07T05:01:40.383Z,13.03
2018-11-07T05:04:14.358Z,12.95
2018-11-07T05:06:49.755Z,13.03
2018-11-07T05:09:23.343Z,13.08
2018-11-07T05:11:56.792Z,13.78
2018-11-07T05:14:30.853Z,16.07
2018-11-07T05:17:04.515Z,14.13
2018-11-07T05:19:38.002Z,15.72
2018-11-07T05:22:11.608Z,13.13
2018-11-07T05:24:45.483Z,12.78
2018-11-07T05:27:19.137Z,15.13
2018-11-07T05:29:52.596Z,14.45
2018-11-07T05:32:26.619Z,13.03
2018-11-07T05:35:00.277Z,14.20
2018-11-07T05:37:33.756Z,18.92
2018-11-07T05:40:07.510Z,16.25
2018-11-07T05:42:41.280Z,12.95
2018-11-07T05:45:14.896Z,13.90
2018-11-07T05:50:20.780Z,15.78
2018-11-07T05:52:54.581Z,14.50
2018-11-07T05:55:28.547Z,15.08
2018-11-07T05:58:02.363Z,13.45
2018-11-07T06:00:35.978Z,15.95
2018-11-07T06:03:09.601Z,16.20
2018-11-07T06:05:43.582Z,12.18
2018-11-07T06:08:17.317Z,13.13
2018-11-07T06:10:50.787Z,17.07
2018-11-07T06:13:24.547Z,12.88
2018-11-07T06:15:58.419Z,12.65
2018-11-07T06:18:32.068Z,12.82
2018-11-07T06:21:05.630Z,13.55
2018-11-07T06:23:39.288Z,12.75
2018-11-07T06:26:13.355Z,15.00
2018-11-07T06:28:47.272Z,12.55
2018-11-07T06:31:20.791Z,13.40
2018-11-07T06:33:53.655Z,12.60
2018-11-07T06:36:27.348Z,13.35
2018-11-07T06:39:00.807Z,15.95
2018-11-07T06:41:33.562Z,12.53
2018-11-07T06:44:06.409Z,14.33
2018-11-07T06:46:40.056Z,12.95
2018-11-07T06:49:15.778Z,11.48
2018-11-07T06:51:49.432Z,11.53
2018-11-07T06:54:23.517Z,12.60
2018-11-07T06:56:57.602Z,12.10
2018-11-07T06:59:31.065Z,12.25
2018-11-07T07:02:04.777Z,12.10
2018-11-07T07:04:37.659Z,13.22
2018-11-07T07:07:10.464Z,12.03
2018-11-07T07:09:45.379Z,12.00
2018-11-07T07:12:19.273Z,13.90
2018-11-07T07:14:52.759Z,12.80
2018-11-07T07:17:26.430Z,13.88
2018-11-07T07:20:00.083Z,14.78
2018-11-07T07:22:33.610Z,14.65
2018-11-07T07:25:07.807Z,13.22
2018-11-07T07:27:40.966Z,14.10
2018-11-07T07:30:16.149Z,14.63
2018-11-07T07:32:50.274Z,15.63
2018-11-07T07:35:23.786Z,16.45
2018-11-07T07:37:57.766Z,12.07
2018-11-07T07:40:31.374Z,13.62
2018-11-07T07:43:05.289Z,17.12
2018-11-07T07:45:38.842Z,13.53
2018-11-07T07:48:11.605Z,14.33
2018-11-07T07:51:22.452Z,14.53
2018-11-07T07:53:56.273Z,12.30
2018-11-07T07:56:29.481Z,12.78
2018-11-07T07:59:03.000Z,13.35
2018-11-07T08:01:36.628Z,12.27
2018-11-07T08:04:10.705Z,12.58
2018-11-07T08:06:43.764Z,14.50
2018-11-07T08:09:17.291Z,13.72
2018-11-07T08:11:51.295Z,13.05
2018-11-07T08:14:25.047Z,12.68
2018-11-07T08:16:58.672Z,12.18
2018-11-07T08:19:32.371Z,13.53
2018-11-07T08:22:05.493Z,14.38
2018-11-07T08:24:38.657Z,12.43
2018-11-07T08:27:11.679Z,12.93
2018-11-07T08:29:44.791Z,11.88
2018-11-07T08:32:19.560Z,12.98
2018-11-07T08:34:52.576Z,11.85
2018-11-07T08:37:26.048Z,13.22
2018-11-07T08:39:59.627Z,12.33
2018-11-07T08:42:33.389Z,13.05
2018-11-07T08:45:08.344Z,14.75
2018-11-07T08:47:42.280Z,17.60
2018-11-07T08:50:18.344Z,13.22
2018-11-07T08:52:52.281Z,17.62
2018-11-07T08:55:25.995Z,17.50
2018-11-07T08:57:59.548Z,15.60
2018-11-07T09:00:33.297Z,17.32
2018-11-07T09:03:07.441Z,15.32
2018-11-07T09:05:40.942Z,16.02
2018-11-07T09:08:14.590Z,15.47
2018-11-07T09:10:48.324Z,12.15
2018-11-07T09:13:22.063Z,13.32
2018-11-07T09:15:55.759Z,13.72
2018-11-07T09:18:29.449Z,13.70
2018-11-07T09:21:03.285Z,20.37
2018-11-07T09:23:36.782Z,20.80
2018-11-07T09:26:09.626Z,19.75
2018-11-07T09:28:43.269Z,22.22
2018-11-07T09:31:16.793Z,19.48
2018-11-07T09:33:49.629Z,18.55
2018-11-07T09:36:23.094Z,15.98
2018-11-07T09:38:56.590Z,17.98
2018-11-07T09:41:30.149Z,23.55
2018-11-07T09:44:03.759Z,16.57
2018-11-07T09:46:37.691Z,17.00
2018-11-07T09:49:11.359Z,19.25
2018-11-07T09:51:44.993Z,17.73
2018-11-07T09:54:18.786Z,17.83
2018-11-07T09:56:52.345Z,16.90
2018-11-07T09:59:26.131Z,16.55
2018-11-07T10:01:59.623Z,18.83
2018-11-07T10:04:33.281Z,15.95
2018-11-07T10:07:07.452Z,17.73
2018-11-07T10:09:41.292Z,17.62
2018-11-07T10:12:14.850Z,15.70
2018-11-07T10:14:47.549Z,17.67
2018-11-07T10:17:20.638Z,13.98
2018-11-07T10:19:54.337Z,15.35
2018-11-07T10:22:28.291Z,15.63
2018-11-07T10:25:02.315Z,19.60
2018-11-07T10:27:36.050Z,15.77
2018-11-07T10:30:11.912Z,16.82
2018-11-07T10:32:46.901Z,16.67
2018-11-07T10:37:53.611Z,14.77
2018-11-07T10:40:27.578Z,12.67
2018-11-07T10:43:01.305Z,13.75
2018-11-07T10:45:34.787Z,17.92
2018-11-07T10:48:08.817Z,13.88
2018-11-07T10:50:42.555Z,11.67
2018-11-07T10:53:16.293Z,13.37
2018-11-07T10:55:49.827Z,13.98
2018-11-07T10:58:23.501Z,15.00
2018-11-07T11:01:13.302Z,18.80
2018-11-07T11:03:47.295Z,12.95
2018-11-07T11:06:20.780Z,12.10
2018-11-07T11:08:54.250Z,19.90
2018-11-07T11:11:26.975Z,14.60
2018-11-07T11:16:33.283Z,16.30
2018-11-07T11:19:07.558Z,16.60
2018-11-07T11:21:41.291Z,14.25
2018-11-07T11:24:14.811Z,17.57
2018-11-07T11:26:48.762Z,18.93
2018-11-07T11:29:22.049Z,15.78
2018-11-07T11:31:56.065Z,17.77
2018-11-07T11:34:29.903Z,17.75
2018-11-07T11:37:04.289Z,19.55
2018-11-07T11:39:37.790Z,14.63
2018-11-07T11:42:11.822Z,18.67
2018-11-07T11:44:45.474Z,18.00
2018-11-07T11:47:19.290Z,16.30
2018-11-07T11:49:53.062Z,15.78
2018-11-07T11:52:27.357Z,16.42
2018-11-07T11:55:00.776Z,20.37
2018-11-07T11:57:34.515Z,20.77
2018-11-07T12:00:09.678Z,16.57
2018-11-07T12:02:43.269Z,13.53
2018-11-07T12:05:18.277Z,21.40
2018-11-07T12:07:52.543Z,18.40
2018-11-07T12:10:28.343Z,16.03
2018-11-07T12:13:02.273Z,16.55
2018-11-07T12:15:36.035Z,16.90
2018-11-07T12:18:09.770Z,16.48
2018-11-07T12:20:42.531Z,15.10
2018-11-07T12:23:16.534Z,15.15
2018-11-07T12:25:50.264Z,15.32
2018-11-07T12:28:23.753Z,14.70
2018-11-07T12:30:57.367Z,12.50
2018-11-07T12:33:31.122Z,18.50
2018-11-07T12:36:05.529Z,16.20
2018-11-07T12:38:39.278Z,14.95
2018-11-07T12:41:12.501Z,15.75
2018-11-07T12:43:45.660Z,17.52
2018-11-07T12:46:19.340Z,17.48
2018-11-07T12:48:52.489Z,16.85
2018-11-07T12:51:26.042Z,18.50
2018-11-07T12:53:59.839Z,14.73
2018-11-07T12:56:33.271Z,17.30
2018-11-07T12:59:07.062Z,14.28
2018-11-07T13:01:41.276Z,13.00
2018-11-07T13:04:14.652Z,14.40
2018-11-07T13:06:47.531Z,16.40
2018-11-07T13:09:20.634Z,15.72
2018-11-07T13:11:53.645Z,16.85
2018-11-07T13:14:26.719Z,16.10
2018-11-07T13:17:00.360Z,15.68
2018-11-07T13:19:34.338Z,13.85
2018-11-07T13:22:08.301Z,17.37
2018-11-07T13:24:41.818Z,17.75
2018-11-07T13:27:14.661Z,17.03
2018-11-07T13:29:47.966Z,15.85
2018-11-07T13:32:21.745Z,19.63
2018-11-07T13:34:55.421Z,18.65
2018-11-07T13:37:29.358Z,17.70
2018-11-07T13:40:02.710Z,15.98
2018-11-07T13:42:36.499Z,17.43
2018-11-07T13:45:13.429Z,18.40
2018-11-07T13:47:48.268Z,21.80
2018-11-07T13:50:22.262Z,14.33
2018-11-07T13:52:56.072Z,20.23
2018-11-07T13:55:30.284Z,16.82
2018-11-07T13:58:03.812Z,17.75
2018-11-07T14:00:37.503Z,15.43
2018-11-07T14:03:11.036Z,22.60
2018-11-07T14:05:44.845Z,19.10
2018-11-07T14:08:18.390Z,17.52
2018-11-07T14:10:52.277Z,18.45
2018-11-07T14:13:25.789Z,17.50
2018-11-07T14:15:59.431Z,16.07
2018-11-07T14:18:32.837Z,15.43
2018-11-07T14:21:06.502Z,19.57
2018-11-07T14:23:39.959Z,21.33
2018-11-07T14:26:13.610Z,18.47
2018-11-07T14:28:47.396Z,18.23
2018-11-07T14:31:20.796Z,18.05
2018-11-07T14:33:55.288Z,16.60
2018-11-07T14:36:28.782Z,17.05
2018-11-07T14:39:02.000Z,14.73
2018-11-07T14:41:34.619Z,16.23
2018-11-07T14:44:08.772Z,18.20
2018-11-07T14:46:43.277Z,14.50
2018-11-07T14:49:16.802Z,16.25
2018-11-07T14:51:50.518Z,15.43
2018-11-07T14:54:24.334Z,16.52
2018-11-07T14:56:58.397Z,16.35
2018-11-07T14:59:32.424Z,18.67
2018-11-07T15:02:06.270Z,15.48
2018-11-07T15:04:39.866Z,18.02
2018-11-07T15:09:46.264Z,15.05
2018-11-07T15:12:19.707Z,12.63
2018-11-07T15:14:53.374Z,12.23
2018-11-07T15:17:27.261Z,11.60
2018-11-07T15:20:01.368Z,12.20
2018-11-07T15:22:34.987Z,11.63
2018-11-07T15:25:09.852Z,14.07
2018-11-07T15:27:44.813Z,13.75
2018-11-07T15:30:19.061Z,12.25
2018-11-07T15:32:52.905Z,12.45
2018-11-07T15:37:58.805Z,12.23
2018-11-07T15:40:32.774Z,11.28
2018-11-07T15:43:06.891Z,10.38
2018-11-07T15:45:40.780Z,14.60
2018-11-07T15:48:14.549Z,13.45
2018-11-07T15:51:05.528Z,10.18
2018-11-07T15:53:39.369Z,12.25
2018-11-07T15:56:13.266Z,12.88
2018-11-07T15:58:47.049Z,12.58
2018-11-07T16:01:20.996Z,11.25
2018-11-07T16:04:27.534Z,13.10
2018-11-07T16:07:00.626Z,10.40
2018-11-07T16:09:33.656Z,12.68
2018-11-07T16:12:06.847Z,12.18
2018-11-07T16:17:12.470Z,12.07
2018-11-07T16:19:45.848Z,12.18
2018-11-07T16:24:51.771Z,13.38
2018-11-07T16:27:25.354Z,11.68
2018-11-07T16:29:58.743Z,13.03
2018-11-07T16:32:32.637Z,10.90
2018-11-07T16:35:06.554Z,11.20
2018-11-07T16:37:40.305Z,11.40
2018-11-07T16:40:15.583Z,13.38
2018-11-07T16:42:49.280Z,13.15
2018-11-07T16:45:22.722Z,11.30
2018-11-07T16:47:56.371Z,11.95
2018-11-07T16:50:29.787Z,12.30
2018-11-07T16:53:03.526Z,9.55
2018-11-07T16:55:37.269Z,11.83
2018-11-07T16:58:10.742Z,10.58
2018-11-07T17:00:44.530Z,12.18
2018-11-07T17:03:18.678Z,10.63
2018-11-07T17:05:52.275Z,8.88
2018-11-07T17:08:25.733Z,11.10
2018-11-07T17:13:14.191Z,12.45
2018-11-07T17:15:47.265Z,9.55
2018-11-07T17:18:20.552Z,14.60
2018-11-07T17:20:53.534Z,12.58
2018-11-07T17:23:27.053Z,16.55
2018-11-07T17:26:00.880Z,15.20
2018-11-07T17:28:34.712Z,14.60
2018-11-07T17:31:08.391Z,11.48
2018-11-07T17:33:41.813Z,12.43
2018-11-07T17:36:15.226Z,12.40
2018-11-07T17:38:48.591Z,10.82
2018-11-07T17:41:22.494Z,12.53
2018-11-07T17:43:55.677Z,13.22
2018-11-07T17:46:29.540Z,12.00
2018-11-07T17:49:03.267Z,15.30
2018-11-07T17:51:36.677Z,15.58
2018-11-07T17:54:10.374Z,11.48
2018-11-07T17:56:44.319Z,13.00
2018-11-07T17:59:18.273Z,13.05
2018-11-07T18:01:51.793Z,15.40
2018-11-07T18:04:25.388Z,10.60
2018-11-07T18:06:59.055Z,11.78
2018-11-07T18:09:33.117Z,10.43
2018-11-07T18:12:06.752Z,9.95
2018-11-07T18:14:40.565Z,12.35
2018-11-07T18:17:14.235Z,12.07
2018-11-07T18:19:48.286Z,9.88
2018-11-07T18:22:22.287Z,10.63
2018-11-07T18:24:55.767Z,9.80
2018-11-07T18:27:29.411Z,12.45
2018-11-07T18:30:06.822Z,12.07
2018-11-07T18:32:39.968Z,9.50
2018-11-07T18:35:14.697Z,11.07
2018-11-07T18:37:49.054Z,13.50
2018-11-07T18:40:23.295Z,9.90
2018-11-07T18:42:57.523Z,9.30
2018-11-07T18:45:31.270Z,12.23
2018-11-07T18:48:04.733Z,11.03
2018-11-07T18:50:38.770Z,12.73
2018-11-07T18:53:12.623Z,11.10
2018-11-07T18:55:46.780Z,9.65
2018-11-07T18:58:21.354Z,8.65
2018-11-07T19:00:55.371Z,10.72
2018-11-07T19:03:29.277Z,10.00
2018-11-07T19:06:03.821Z,8.70
2018-11-07T19:08:38.292Z,8.73
2018-11-07T19:11:11.794Z,9.05
2018-11-07T19:13:44.605Z,9.60
2018-11-07T19:16:17.391Z,8.88
2018-11-07T19:18:51.280Z,9.63
2018-11-07T19:21:25.755Z,10.65
2018-11-07T19:23:59.370Z,10.63
2018-11-07T19:26:33.102Z,10.65
2018-11-07T19:29:07.286Z,11.00
2018-11-07T19:31:40.756Z,12.15
2018-11-07T19:34:14.810Z,9.20
2018-11-07T19:36:48.553Z,12.30
2018-11-07T19:39:23.267Z,9.13
2018-11-07T19:41:56.472Z,11.75
2018-11-07T19:44:29.546Z,11.75
2018-11-07T19:47:03.342Z,9.85
2018-11-07T19:49:36.505Z,9.10
2018-11-07T19:52:10.274Z,9.18
2018-11-07T19:54:43.517Z,9.50
2018-11-07T19:57:16.651Z,11.18
2018-11-07T19:59:49.708Z,10.38
2018-11-07T20:02:22.657Z,10.13
2018-11-07T20:04:55.658Z,9.10
2018-11-07T20:07:28.773Z,14.73
2018-11-07T20:10:02.290Z,11.75
2018-11-07T20:12:35.655Z,8.20
2018-11-07T20:15:11.366Z,9.95
2018-11-07T20:17:45.668Z,9.33
2018-11-07T20:20:19.334Z,12.30
2018-11-07T20:22:53.399Z,10.82
2018-11-07T20:25:27.273Z,10.82
2018-11-07T20:28:00.624Z,10.18
2018-11-07T20:30:34.735Z,11.25
2018-11-07T20:33:08.263Z,9.93
2018-11-07T20:35:42.008Z,11.55
2018-11-07T20:40:47.627Z,10.05
2018-11-07T20:43:20.691Z,9.03
2018-11-07T20:45:54.095Z,9.33
2018-11-07T20:48:27.452Z,9.98
2018-11-07T20:51:01.017Z,8.18
2018-11-07T20:53:34.586Z,14.00
2018-11-07T20:56:08.319Z,11.93
2018-11-07T20:58:41.761Z,10.00
2018-11-07T21:01:15.576Z,10.70
2018-11-07T21:03:49.609Z,9.78
2018-11-07T21:06:23.316Z,8.35
2018-11-07T21:08:57.510Z,9.88
2018-11-07T21:11:31.063Z,10.23
2018-11-07T21:14:04.579Z,12.07
2018-11-07T21:16:38.590Z,11.35
2018-11-07T21:19:12.529Z,9.05
2018-11-07T21:21:46.510Z,9.30
2018-11-07T21:24:20.990Z,8.80
2018-11-07T21:26:55.333Z,9.07
2018-11-07T21:29:28.788Z,10.53
2018-11-07T21:32:02.558Z,8.95
2018-11-07T21:34:36.314Z,10.08
2018-11-07T21:37:09.785Z,9.40
2018-11-07T21:39:43.605Z,9.18
2018-11-07T21:42:18.055Z,10.05
2018-11-07T21:44:51.695Z,9.75
2018-11-07T21:47:28.328Z,9.70
2018-11-07T21:50:02.701Z,10.85
2018-11-07T21:52:36.318Z,10.75
2018-11-07T21:55:10.602Z,8.77
2018-11-07T21:57:44.277Z,12.43
2018-11-07T22:00:20.587Z,11.53
2018-11-07T22:02:54.151Z,9.65
2018-11-07T22:05:27.600Z,10.18
2018-11-07T22:08:01.049Z,11.28
2018-11-07T22:10:35.327Z,11.60
2018-11-07T22:13:09.390Z,10.57
2018-11-07T22:15:42.984Z,10.65
2018-11-07T22:18:16.784Z,9.20
2018-11-07T22:20:50.482Z,12.60
2018-11-07T22:23:23.792Z,10.73
2018-11-07T22:25:57.503Z,10.70
2018-11-07T22:28:31.371Z,9.50
2018-11-07T22:31:05.354Z,12.03
2018-11-07T22:33:38.735Z,10.73
2018-11-07T22:36:12.390Z,10.23
2018-11-07T22:38:45.785Z,11.28
2018-11-07T22:41:19.534Z,10.45
2018-11-07T22:43:53.469Z,11.08
2018-11-07T22:46:26.985Z,9.90
2018-11-07T22:49:00.773Z,10.00
2018-11-07T22:51:34.542Z,13.58
2018-11-07T22:54:08.380Z,11.63
2018-11-07T22:56:41.819Z,10.80
2018-11-07T22:59:15.568Z,9.73
2018-11-07T23:01:49.267Z,12.45
2018-11-07T23:04:22.776Z,11.65
2018-11-07T23:06:56.739Z,9.93
2018-11-07T23:09:30.478Z,10.90
2018-11-07T23:12:04.536Z,10.40
2018-11-07T23:14:38.653Z,11.15
2018-11-07T23:17:12.273Z,11.10
2018-11-07T23:19:46.273Z,12.03
2018-11-07T23:22:19.737Z,9.35
2018-11-07T23:24:53.482Z,10.08
2018-11-07T23:27:27.053Z,10.53
2018-11-07T23:30:00.730Z,10.50
2018-11-07T23:32:34.822Z,11.93
2018-11-07T23:35:08.415Z,11.12
2018-11-07T23:37:41.246Z,9.43
2018-11-07T23:40:15.056Z,9.57
2018-11-07T23:42:48.607Z,10.10
2018-11-07T23:45:22.493Z,9.63
2018-11-07T23:47:56.535Z,9.73
2018-11-07T23:50:30.628Z,9.73
2018-11-07T23:53:06.283Z,10.50
2018-11-07T23:55:39.882Z,9.13
